Terminal Aerodrome Forecast
Issued by NWS Shreveport, LA

Home | Current Version | Previous Version | Text Only | Print | Product List | Glossary On
Versions: 1 2 3 4 5 6 7 8 9 10 11 12 13 14
000
FTUS44 KSHV 012000 AAA
TAFLFK
TAF AMD
KLFK 012018Z 0120/0218 01005KT 1SM -DZ BR OVC002
      TEMPO 0120/0124 4SM -SHRA BR OVC005
     FM020000 02006KT 3SM -RA BR OVC004=

USA.gov is the U.S. government's official web portal to all federal, state and local government web resources and services.